createdAt,value
2022-09-11T00:08:07.171Z,47.8
2022-09-11T00:38:09.595Z,47.8
2022-09-11T01:09:12.250Z,47.2
2022-09-11T01:40:14.734Z,47.2
2022-09-11T02:10:16.991Z,47.8
2022-09-11T02:41:19.575Z,47.8
2022-09-11T03:15:22.446Z,47.2
2022-09-11T03:46:25.032Z,48.3
2022-09-11T04:16:27.489Z,48.3
2022-09-11T04:46:29.734Z,48.3
2022-09-11T05:17:32.310Z,48.9
2022-09-11T05:47:34.820Z,49.4
2022-09-11T06:17:37.235Z,52.6
2022-09-11T06:18:37.358Z,51
2022-09-11T06:19:37.501Z,51.5
2022-09-11T07:13:42.186Z,53.7
2022-09-11T07:23:42.000Z,54.2
2022-09-11T07:24:42.000Z,53.7
2022-09-11T07:59:45.901Z,59.6
2022-09-11T08:30:48.399Z,62.3
2022-09-11T09:00:51.006Z,62.8
2022-09-11T09:33:53.716Z,61.2
2022-09-11T10:04:56.226Z,71.4
2022-09-11T10:34:58.811Z,66.6
2022-09-11T11:05:01.235Z,59.1
2022-09-11T11:35:03.964Z,58
2022-09-11T12:05:06.440Z,65.5
2022-09-11T12:36:08.906Z,73.1
2022-09-11T13:07:11.607Z,73.1
2022-09-11T13:38:13.902Z,71.4
2022-09-11T14:08:16.453Z,66.1
2022-09-11T14:38:19.061Z,59.1
2022-09-11T15:08:21.670Z,57.5
2022-09-11T15:38:24.005Z,58.5
2022-09-11T16:09:26.650Z,67.1
2022-09-11T16:41:29.627Z,65
2022-09-11T17:12:32.287Z,53.7
2022-09-11T17:42:34.922Z,50.5
2022-09-11T18:17:37.807Z,48.3
2022-09-11T18:48:40.515Z,47.2
2022-09-11T19:18:43.055Z,47.8
2022-09-11T19:48:45.618Z,47.2
2022-09-11T20:18:48.319Z,46.2
2022-09-11T20:48:50.713Z,46.2
2022-09-11T21:18:53.235Z,45.1
2022-09-11T21:49:55.798Z,45.1
2022-09-11T22:21:58.361Z,45.6
2022-09-11T22:52:00.891Z,44.5
2022-09-11T23:22:03.476Z,45.1
2022-09-11T23:52:06.087Z,44
